sensor_id;sensor_type;location;lat;lon;timestamp;temperature;humidity
71175;DHT22;58876;51.994;4.472;2022-07-29T00:00:45;18.77;58.92
71175;DHT22;58876;51.994;4.472;2022-07-29T00:03:11;18.75;58.92
71175;DHT22;58876;51.994;4.472;2022-07-29T00:05:42;18.75;59.45
71175;DHT22;58876;51.994;4.472;2022-07-29T00:08:08;18.71;58.97
71175;DHT22;58876;51.994;4.472;2022-07-29T00:10:35;18.70;58.56
71175;DHT22;58876;51.994;4.472;2022-07-29T00:13:00;18.65;59.20
71175;DHT22;58876;51.994;4.472;2022-07-29T00:15:31;18.61;58.91
71175;DHT22;58876;51.994;4.472;2022-07-29T00:17:56;18.59;59.02
71175;DHT22;58876;51.994;4.472;2022-07-29T00:20:22;18.63;58.69
71175;DHT22;58876;51.994;4.472;2022-07-29T00:22:47;18.59;59.80
71175;DHT22;58876;51.994;4.472;2022-07-29T00:28:19;18.54;59.15
71175;DHT22;58876;51.994;4.472;2022-07-29T00:30:45;18.57;59.52
71175;DHT22;58876;51.994;4.472;2022-07-29T00:33:10;18.57;59.31
71175;DHT22;58876;51.994;4.472;2022-07-29T00:35:39;18.56;59.48
71175;DHT22;58876;51.994;4.472;2022-07-29T00:38:13;18.51;59.30
71175;DHT22;58876;51.994;4.472;2022-07-29T00:40:40;18.49;59.68
71175;DHT22;58876;51.994;4.472;2022-07-29T00:43:05;18.39;59.90
71175;DHT22;58876;51.994;4.472;2022-07-29T00:45:38;18.34;59.83
71175;DHT22;58876;51.994;4.472;2022-07-29T00:48:05;18.37;59.65
71175;DHT22;58876;51.994;4.472;2022-07-29T00:50:31;18.39;59.92
71175;DHT22;58876;51.994;4.472;2022-07-29T00:52:58;18.34;60.45
71175;DHT22;58876;51.994;4.472;2022-07-29T00:55:25;18.32;60.47
71175;DHT22;58876;51.994;4.472;2022-07-29T00:57:52;18.37;60.16
71175;DHT22;58876;51.994;4.472;2022-07-29T01:00:21;18.39;59.83
71175;DHT22;58876;51.994;4.472;2022-07-29T01:02:48;18.40;60.41
71175;DHT22;58876;51.994;4.472;2022-07-29T01:05:18;18.36;60.22
71175;DHT22;58876;51.994;4.472;2022-07-29T01:07:45;18.34;59.61
71175;DHT22;58876;51.994;4.472;2022-07-29T01:10:14;18.32;60.20
71175;DHT22;58876;51.994;4.472;2022-07-29T01:12:43;18.34;59.70
71175;DHT22;58876;51.994;4.472;2022-07-29T01:15:13;18.34;60.18
71175;DHT22;58876;51.994;4.472;2022-07-29T01:17:53;18.37;59.86
71175;DHT22;58876;51.994;4.472;2022-07-29T01:23:27;18.29;60.11
71175;DHT22;58876;51.994;4.472;2022-07-29T01:31:24;18.25;60.97
71175;DHT22;58876;51.994;4.472;2022-07-29T01:33:58;18.23;60.90
71175;DHT22;58876;51.994;4.472;2022-07-29T01:36:37;18.20;60.99
71175;DHT22;58876;51.994;4.472;2022-07-29T01:41:40;18.17;60.69
71175;DHT22;58876;51.994;4.472;2022-07-29T01:44:34;18.22;61.07
71175;DHT22;58876;51.994;4.472;2022-07-29T01:47:08;18.20;60.62
71175;DHT22;58876;51.994;4.472;2022-07-29T01:49:40;18.17;61.15
71175;DHT22;58876;51.994;4.472;2022-07-29T01:52:16;18.10;61.86
71175;DHT22;58876;51.994;4.472;2022-07-29T01:54:50;18.10;61.43
71175;DHT22;58876;51.994;4.472;2022-07-29T01:57:21;18.08;61.16
71175;DHT22;58876;51.994;4.472;2022-07-29T01:59:52;18.09;61.59
71175;DHT22;58876;51.994;4.472;2022-07-29T02:02:19;18.08;61.83
71175;DHT22;58876;51.994;4.472;2022-07-29T02:04:57;17.98;61.73
71175;DHT22;58876;51.994;4.472;2022-07-29T02:07:26;17.99;62.09
71175;DHT22;58876;51.994;4.472;2022-07-29T02:09:55;18.02;62.43
71175;DHT22;58876;51.994;4.472;2022-07-29T02:12:25;17.99;62.24
71175;DHT22;58876;51.994;4.472;2022-07-29T02:15:06;17.99;62.22
71175;DHT22;58876;51.994;4.472;2022-07-29T02:17:41;17.95;61.74
71175;DHT22;58876;51.994;4.472;2022-07-29T02:20:09;17.93;62.48
71175;DHT22;58876;51.994;4.472;2022-07-29T02:22:37;17.92;62.16
71175;DHT22;58876;51.994;4.472;2022-07-29T02:25:29;17.95;62.04
71175;DHT22;58876;51.994;4.472;2022-07-29T02:27:55;17.96;62.07
71175;DHT22;58876;51.994;4.472;2022-07-29T02:30:23;17.96;62.12
71175;DHT22;58876;51.994;4.472;2022-07-29T02:32:51;17.93;61.74
71175;DHT22;58876;51.994;4.472;2022-07-29T02:38:42;17.81;62.02
71175;DHT22;58876;51.994;4.472;2022-07-29T02:41:28;17.81;62.30
71175;DHT22;58876;51.994;4.472;2022-07-29T02:44:05;17.82;62.62
71175;DHT22;58876;51.994;4.472;2022-07-29T02:46:34;17.81;62.71
71175;DHT22;58876;51.994;4.472;2022-07-29T02:49:16;17.72;62.71
71175;DHT22;58876;51.994;4.472;2022-07-29T02:51:54;17.64;62.69
71175;DHT22;58876;51.994;4.472;2022-07-29T02:57:37;17.62;62.92
71175;DHT22;58876;51.994;4.472;2022-07-29T03:00:07;17.65;62.74
71175;DHT22;58876;51.994;4.472;2022-07-29T03:02:36;17.62;62.95
71175;DHT22;58876;51.994;4.472;2022-07-29T03:05:36;17.57;63.12
71175;DHT22;58876;51.994;4.472;2022-07-29T03:08:04;17.52;63.16
71175;DHT22;58876;51.994;4.472;2022-07-29T03:10:31;17.54;62.97
71175;DHT22;58876;51.994;4.472;2022-07-29T03:12:58;17.50;62.93
71175;DHT22;58876;51.994;4.472;2022-07-29T03:18:28;17.50;63.71
71175;DHT22;58876;51.994;4.472;2022-07-29T03:20:54;17.48;63.10
71175;DHT22;58876;51.994;4.472;2022-07-29T03:23:21;17.44;63.01
71175;DHT22;58876;51.994;4.472;2022-07-29T03:25:52;17.38;63.58
71175;DHT22;58876;51.994;4.472;2022-07-29T03:28:18;17.38;63.73
71175;DHT22;58876;51.994;4.472;2022-07-29T03:30:45;17.38;63.51
71175;DHT22;58876;51.994;4.472;2022-07-29T03:33:10;17.40;63.58
71175;DHT22;58876;51.994;4.472;2022-07-29T03:36:10;17.40;63.38
71175;DHT22;58876;51.994;4.472;2022-07-29T03:38:37;17.44;63.62
71175;DHT22;58876;51.994;4.472;2022-07-29T03:41:09;17.42;63.67
71175;DHT22;58876;51.994;4.472;2022-07-29T03:43:51;17.37;64.01
71175;DHT22;58876;51.994;4.472;2022-07-29T03:46:20;17.38;63.29
71175;DHT22;58876;51.994;4.472;2022-07-29T03:48:50;17.41;63.27
71175;DHT22;58876;51.994;4.472;2022-07-29T03:51:17;17.41;63.66
71175;DHT22;58876;51.994;4.472;2022-07-29T03:53:44;17.35;63.87
71175;DHT22;58876;51.994;4.472;2022-07-29T03:56:11;17.38;63.85
71175;DHT22;58876;51.994;4.472;2022-07-29T03:58:40;17.34;64.03
71175;DHT22;58876;51.994;4.472;2022-07-29T04:01:06;17.38;63.40
71175;DHT22;58876;51.994;4.472;2022-07-29T04:06:45;17.37;63.65
71175;DHT22;58876;51.994;4.472;2022-07-29T04:09:11;17.35;63.57
71175;DHT22;58876;51.994;4.472;2022-07-29T04:11:39;17.34;64.09
71175;DHT22;58876;51.994;4.472;2022-07-29T04:17:31;17.31;63.61
71175;DHT22;58876;51.994;4.472;2022-07-29T04:19:56;17.30;63.85
71175;DHT22;58876;51.994;4.472;2022-07-29T04:22:22;17.26;63.60
71175;DHT22;58876;51.994;4.472;2022-07-29T04:25:05;17.28;63.71
71175;DHT22;58876;51.994;4.472;2022-07-29T04:27:30;17.30;63.98
71175;DHT22;58876;51.994;4.472;2022-07-29T04:29:56;17.31;63.52
71175;DHT22;58876;51.994;4.472;2022-07-29T04:32:21;17.31;63.59
71175;DHT22;58876;51.994;4.472;2022-07-29T04:38:08;17.35;63.87
71175;DHT22;58876;51.994;4.472;2022-07-29T04:40:34;17.28;63.50
71175;DHT22;58876;51.994;4.472;2022-07-29T04:43:00;17.20;64.00
71175;DHT22;58876;51.994;4.472;2022-07-29T04:45:28;17.24;63.74
71175;DHT22;58876;51.994;4.472;2022-07-29T04:47:54;17.30;63.33
71175;DHT22;58876;51.994;4.472;2022-07-29T04:50:20;17.33;63.51
71175;DHT22;58876;51.994;4.472;2022-07-29T04:52:45;17.35;63.47
71175;DHT22;58876;51.994;4.472;2022-07-29T04:55:21;17.37;63.18
71175;DHT22;58876;51.994;4.472;2022-07-29T04:57:47;17.34;63.52
71175;DHT22;58876;51.994;4.472;2022-07-29T05:00:12;17.35;63.36
71175;DHT22;58876;51.994;4.472;2022-07-29T05:02:38;17.38;62.94
71175;DHT22;58876;51.994;4.472;2022-07-29T05:05:05;17.40;63.22
71175;DHT22;58876;51.994;4.472;2022-07-29T05:07:30;17.42;63.22
71175;DHT22;58876;51.994;4.472;2022-07-29T05:09:56;17.42;63.04
71175;DHT22;58876;51.994;4.472;2022-07-29T05:12:23;17.44;63.39
71175;DHT22;58876;51.994;4.472;2022-07-29T05:15:05;17.45;63.14
71175;DHT22;58876;51.994;4.472;2022-07-29T05:17:31;17.42;62.82
71175;DHT22;58876;51.994;4.472;2022-07-29T05:19:56;17.48;62.86
71175;DHT22;58876;51.994;4.472;2022-07-29T05:22:22;17.52;63.16
71175;DHT22;58876;51.994;4.472;2022-07-29T05:24:53;17.64;62.64
71175;DHT22;58876;51.994;4.472;2022-07-29T05:27:19;17.77;62.41
71175;DHT22;58876;51.994;4.472;2022-07-29T05:29:44;17.88;61.73
71175;DHT22;58876;51.994;4.472;2022-07-29T05:32:09;18.05;61.67
71175;DHT22;58876;51.994;4.472;2022-07-29T05:34:43;18.30;61.38
71175;DHT22;58876;51.994;4.472;2022-07-29T05:37:08;18.47;60.50
71175;DHT22;58876;51.994;4.472;2022-07-29T05:39:34;18.63;60.13
71175;DHT22;58876;51.994;4.472;2022-07-29T05:41:59;18.78;59.67
71175;DHT22;58876;51.994;4.472;2022-07-29T05:44:27;18.94;58.82
71175;DHT22;58876;51.994;4.472;2022-07-29T05:46:52;19.04;58.21
71175;DHT22;58876;51.994;4.472;2022-07-29T05:49:18;19.16;57.95
71175;DHT22;58876;51.994;4.472;2022-07-29T05:51:44;19.18;57.68
71175;DHT22;58876;51.994;4.472;2022-07-29T05:54:09;19.16;57.61
71175;DHT22;58876;51.994;4.472;2022-07-29T05:56:36;19.26;57.53
71175;DHT22;58876;51.994;4.472;2022-07-29T05:59:02;19.33;57.29
71175;DHT22;58876;51.994;4.472;2022-07-29T06:01:28;19.29;57.93
71175;DHT22;58876;51.994;4.472;2022-07-29T06:03:54;19.35;57.57
71175;DHT22;58876;51.994;4.472;2022-07-29T06:06:20;19.36;57.23
71175;DHT22;58876;51.994;4.472;2022-07-29T06:08:46;19.46;57.20
71175;DHT22;58876;51.994;4.472;2022-07-29T06:11:12;19.53;57.24
71175;DHT22;58876;51.994;4.472;2022-07-29T06:13:45;19.69;56.67
71175;DHT22;58876;51.994;4.472;2022-07-29T06:16:11;19.81;56.42
71175;DHT22;58876;51.994;4.472;2022-07-29T06:18:36;19.90;55.66
71175;DHT22;58876;51.994;4.472;2022-07-29T06:21:07;19.84;56.50
71175;DHT22;58876;51.994;4.472;2022-07-29T06:23:49;19.80;56.52
71175;DHT22;58876;51.994;4.472;2022-07-29T06:26:14;19.69;55.93
71175;DHT22;58876;51.994;4.472;2022-07-29T06:28:40;19.67;56.42
71175;DHT22;58876;51.994;4.472;2022-07-29T06:31:05;19.69;56.63
71175;DHT22;58876;51.994;4.472;2022-07-29T06:33:31;19.81;56.56
71175;DHT22;58876;51.994;4.472;2022-07-29T06:35:56;19.83;56.34
71175;DHT22;58876;51.994;4.472;2022-07-29T06:38:22;19.88;55.96
71175;DHT22;58876;51.994;4.472;2022-07-29T06:40:47;19.84;56.14
71175;DHT22;58876;51.994;4.472;2022-07-29T06:43:35;20.18;56.12
71175;DHT22;58876;51.994;4.472;2022-07-29T06:46:11;20.48;54.78
71175;DHT22;58876;51.994;4.472;2022-07-29T06:48:38;20.71;54.59
71175;DHT22;58876;51.994;4.472;2022-07-29T06:51:05;20.96;54.69
71175;DHT22;58876;51.994;4.472;2022-07-29T06:53:50;21.22;53.52
71175;DHT22;58876;51.994;4.472;2022-07-29T06:56:16;21.13;52.25
71175;DHT22;58876;51.994;4.472;2022-07-29T06:58:41;20.86;53.03
71175;DHT22;58876;51.994;4.472;2022-07-29T07:01:07;20.89;53.11
71175;DHT22;58876;51.994;4.472;2022-07-29T07:03:41;20.73;53.67
71175;DHT22;58876;51.994;4.472;2022-07-29T07:06:07;20.80;54.19
71175;DHT22;58876;51.994;4.472;2022-07-29T07:08:33;20.87;54.05
71175;DHT22;58876;51.994;4.472;2022-07-29T07:10:58;21.17;54.02
71175;DHT22;58876;51.994;4.472;2022-07-29T07:13:24;21.19;53.01
71175;DHT22;58876;51.994;4.472;2022-07-29T07:15:49;21.16;52.44
71175;DHT22;58876;51.994;4.472;2022-07-29T07:18:16;20.85;53.69
71175;DHT22;58876;51.994;4.472;2022-07-29T07:20:43;20.76;53.91
71175;DHT22;58876;51.994;4.472;2022-07-29T07:23:08;20.75;54.92
71175;DHT22;58876;51.994;4.472;2022-07-29T07:28:59;20.68;54.87
71175;DHT22;58876;51.994;4.472;2022-07-29T07:31:25;20.79;54.90
71175;DHT22;58876;51.994;4.472;2022-07-29T07:33:59;20.72;55.15
71175;DHT22;58876;51.994;4.472;2022-07-29T07:36:24;21.13;54.39
71175;DHT22;58876;51.994;4.472;2022-07-29T07:38:50;21.57;52.59
71175;DHT22;58876;51.994;4.472;2022-07-29T07:41:27;21.74;52.60
71175;DHT22;58876;51.994;4.472;2022-07-29T07:43:58;22.56;51.86
71175;DHT22;58876;51.994;4.472;2022-07-29T07:46:24;23.38;48.99
71175;DHT22;58876;51.994;4.472;2022-07-29T07:48:49;23.74;47.73
71175;DHT22;58876;51.994;4.472;2022-07-29T07:51:15;24.47;45.99
71175;DHT22;58876;51.994;4.472;2022-07-29T07:53:52;24.71;44.50
71175;DHT22;58876;51.994;4.472;2022-07-29T07:56:18;24.73;44.45
71175;DHT22;58876;51.994;4.472;2022-07-29T07:58:44;24.24;46.22
71175;DHT22;58876;51.994;4.472;2022-07-29T08:01:09;23.92;47.04
71175;DHT22;58876;51.994;4.472;2022-07-29T08:03:36;23.56;47.24
71175;DHT22;58876;51.994;4.472;2022-07-29T08:06:03;24.37;46.55
71175;DHT22;58876;51.994;4.472;2022-07-29T08:08:29;26.36;42.12
71175;DHT22;58876;51.994;4.472;2022-07-29T08:10:54;27.51;40.07
71175;DHT22;58876;51.994;4.472;2022-07-29T08:13:24;28.48;38.96
71175;DHT22;58876;51.994;4.472;2022-07-29T08:15:51;29.05;36.86
71175;DHT22;58876;51.994;4.472;2022-07-29T08:18:38;29.49;36.88
71175;DHT22;58876;51.994;4.472;2022-07-29T08:21:04;29.73;35.14
71175;DHT22;58876;51.994;4.472;2022-07-29T08:23:29;29.57;36.84
71175;DHT22;58876;51.994;4.472;2022-07-29T08:26:08;29.32;35.79
71175;DHT22;58876;51.994;4.472;2022-07-29T08:28:40;29.37;36.81
71175;DHT22;58876;51.994;4.472;2022-07-29T08:31:07;29.90;36.04
71175;DHT22;58876;51.994;4.472;2022-07-29T08:33:33;30.22;35.20
71175;DHT22;58876;51.994;4.472;2022-07-29T08:35:59;30.51;35.55
71175;DHT22;58876;51.994;4.472;2022-07-29T08:38:24;30.72;33.61
71175;DHT22;58876;51.994;4.472;2022-07-29T08:40:52;30.76;34.36
71175;DHT22;58876;51.994;4.472;2022-07-29T08:43:18;30.88;34.68
71175;DHT22;58876;51.994;4.472;2022-07-29T08:45:49;30.98;33.86
71175;DHT22;58876;51.994;4.472;2022-07-29T08:48:20;31.10;35.10
71175;DHT22;58876;51.994;4.472;2022-07-29T08:50:48;30.02;36.35
71175;DHT22;58876;51.994;4.472;2022-07-29T08:53:16;28.50;37.80
71175;DHT22;58876;51.994;4.472;2022-07-29T08:55:48;27.89;40.13
71175;DHT22;58876;51.994;4.472;2022-07-29T08:58:15;28.03;38.94
71175;DHT22;58876;51.994;4.472;2022-07-29T09:00:45;28.31;39.73
71175;DHT22;58876;51.994;4.472;2022-07-29T09:03:15;29.29;37.52
71175;DHT22;58876;51.994;4.472;2022-07-29T09:05:45;29.66;37.67
71175;DHT22;58876;51.994;4.472;2022-07-29T09:08:12;28.57;38.50
71175;DHT22;58876;51.994;4.472;2022-07-29T09:10:38;27.63;41.00
71175;DHT22;58876;51.994;4.472;2022-07-29T09:13:04;27.18;41.00
71175;DHT22;58876;51.994;4.472;2022-07-29T09:15:30;27.81;41.32
71175;DHT22;58876;51.994;4.472;2022-07-29T09:17:56;28.82;38.79
71175;DHT22;58876;51.994;4.472;2022-07-29T09:20:25;29.08;39.59
71175;DHT22;58876;51.994;4.472;2022-07-29T09:22:52;29.42;38.56
71175;DHT22;58876;51.994;4.472;2022-07-29T09:25:32;29.66;38.41
71175;DHT22;58876;51.994;4.472;2022-07-29T09:28:09;29.91;37.50
71175;DHT22;58876;51.994;4.472;2022-07-29T09:30:36;29.96;37.40
71175;DHT22;58876;51.994;4.472;2022-07-29T09:33:04;29.67;38.12
71175;DHT22;58876;51.994;4.472;2022-07-29T09:35:30;29.33;38.58
71175;DHT22;58876;51.994;4.472;2022-07-29T09:37:56;29.49;36.96
71175;DHT22;58876;51.994;4.472;2022-07-29T09:40:24;29.18;37.84
71175;DHT22;58876;51.994;4.472;2022-07-29T09:42:51;29.27;37.42
71175;DHT22;58876;51.994;4.472;2022-07-29T09:45:34;29.19;37.27
71175;DHT22;58876;51.994;4.472;2022-07-29T09:48:13;29.16;37.68
71175;DHT22;58876;51.994;4.472;2022-07-29T09:50:40;28.67;37.05
71175;DHT22;58876;51.994;4.472;2022-07-29T09:53:06;28.07;38.07
71175;DHT22;58876;51.994;4.472;2022-07-29T09:55:46;27.61;40.02
71175;DHT22;58876;51.994;4.472;2022-07-29T09:58:17;27.30;40.81
71175;DHT22;58876;51.994;4.472;2022-07-29T10:00:44;27.24;41.34
71175;DHT22;58876;51.994;4.472;2022-07-29T10:03:10;26.88;41.55
71175;DHT22;58876;51.994;4.472;2022-07-29T10:06:10;26.84;41.34
71175;DHT22;58876;51.994;4.472;2022-07-29T10:08:37;27.15;42.15
71175;DHT22;58876;51.994;4.472;2022-07-29T10:11:16;27.11;41.53
71175;DHT22;58876;51.994;4.472;2022-07-29T10:13:46;27.04;42.85
71175;DHT22;58876;51.994;4.472;2022-07-29T10:16:14;26.86;42.84
71175;DHT22;58876;51.994;4.472;2022-07-29T10:18:42;26.82;43.40
71175;DHT22;58876;51.994;4.472;2022-07-29T10:21:09;26.80;42.84
71175;DHT22;58876;51.994;4.472;2022-07-29T10:23:42;26.82;42.44
71175;DHT22;58876;51.994;4.472;2022-07-29T10:26:10;26.67;42.66
71175;DHT22;58876;51.994;4.472;2022-07-29T10:28:35;26.83;42.52
71175;DHT22;58876;51.994;4.472;2022-07-29T10:31:28;27.14;44.63
71175;DHT22;58876;51.994;4.472;2022-07-29T10:40:09;27.81;40.57
71175;DHT22;58876;51.994;4.472;2022-07-29T10:42:55;27.78;40.58
71175;DHT22;58876;51.994;4.472;2022-07-29T10:45:25;27.81;40.71
71175;DHT22;58876;51.994;4.472;2022-07-29T10:48:03;27.63;39.69
71175;DHT22;58876;51.994;4.472;2022-07-29T10:53:18;27.39;39.57
71175;DHT22;58876;51.994;4.472;2022-07-29T10:55:44;27.30;41.16
71175;DHT22;58876;51.994;4.472;2022-07-29T10:58:13;27.63;41.90
71175;DHT22;58876;51.994;4.472;2022-07-29T11:00:39;28.13;42.21
71175;DHT22;58876;51.994;4.472;2022-07-29T11:03:05;28.25;40.22
71175;DHT22;58876;51.994;4.472;2022-07-29T11:08:30;28.23;35.54
71175;DHT22;58876;51.994;4.472;2022-07-29T11:13:53;27.82;38.52
71175;DHT22;58876;51.994;4.472;2022-07-29T11:16:21;28.02;40.56
71175;DHT22;58876;51.994;4.472;2022-07-29T11:21:43;28.37;40.09
71175;DHT22;58876;51.994;4.472;2022-07-29T11:24:29;28.60;36.52
71175;DHT22;58876;51.994;4.472;2022-07-29T11:32:17;29.08;36.58
71175;DHT22;58876;51.994;4.472;2022-07-29T11:34:47;29.10;37.24
71175;DHT22;58876;51.994;4.472;2022-07-29T11:47:36;28.55;32.53
71175;DHT22;58876;51.994;4.472;2022-07-29T11:50:06;28.17;34.00
71175;DHT22;58876;51.994;4.472;2022-07-29T11:52:42;28.24;36.21
71175;DHT22;58876;51.994;4.472;2022-07-29T11:55:15;28.43;36.36
71175;DHT22;58876;51.994;4.472;2022-07-29T11:57:48;28.09;37.01
71175;DHT22;58876;51.994;4.472;2022-07-29T12:06:42;29.60;35.85
71175;DHT22;58876;51.994;4.472;2022-07-29T12:09:08;29.46;35.59
71175;DHT22;58876;51.994;4.472;2022-07-29T12:11:33;28.91;34.84
71175;DHT22;58876;51.994;4.472;2022-07-29T12:13:59;29.26;36.97
71175;DHT22;58876;51.994;4.472;2022-07-29T12:16:35;29.39;35.98
71175;DHT22;58876;51.994;4.472;2022-07-29T12:19:03;28.71;36.97
71175;DHT22;58876;51.994;4.472;2022-07-29T12:24:18;28.87;37.07
71175;DHT22;58876;51.994;4.472;2022-07-29T12:29:19;28.04;37.69
71175;DHT22;58876;51.994;4.472;2022-07-29T12:35:27;27.76;38.78
71175;DHT22;58876;51.994;4.472;2022-07-29T12:37:53;28.13;40.23
71175;DHT22;58876;51.994;4.472;2022-07-29T12:40:20;28.06;39.41
71175;DHT22;58876;51.994;4.472;2022-07-29T12:43:09;28.64;39.18
71175;DHT22;58876;51.994;4.472;2022-07-29T12:45:41;29.22;37.93
71175;DHT22;58876;51.994;4.472;2022-07-29T12:48:08;29.37;37.05
71175;DHT22;58876;51.994;4.472;2022-07-29T12:50:35;29.29;36.95
71175;DHT22;58876;51.994;4.472;2022-07-29T12:53:11;28.98;38.17
71175;DHT22;58876;51.994;4.472;2022-07-29T12:55:48;28.52;37.88
71175;DHT22;58876;51.994;4.472;2022-07-29T12:58:31;28.72;37.15
71175;DHT22;58876;51.994;4.472;2022-07-29T13:01:09;29.12;35.87
71175;DHT22;58876;51.994;4.472;2022-07-29T13:03:55;29.50;36.25
71175;DHT22;58876;51.994;4.472;2022-07-29T13:06:45;29.66;38.12
71175;DHT22;58876;51.994;4.472;2022-07-29T13:09:18;29.92;35.89
71175;DHT22;58876;51.994;4.472;2022-07-29T13:11:45;29.76;36.45
71175;DHT22;58876;51.994;4.472;2022-07-29T13:14:36;29.46;36.75
71175;DHT22;58876;51.994;4.472;2022-07-29T13:17:08;29.33;36.14
71175;DHT22;58876;51.994;4.472;2022-07-29T13:19:46;29.53;36.79
71175;DHT22;58876;51.994;4.472;2022-07-29T13:22:16;29.98;35.41
71175;DHT22;58876;51.994;4.472;2022-07-29T13:24:59;30.40;33.63
71175;DHT22;58876;51.994;4.472;2022-07-29T13:27:33;29.90;34.85
71175;DHT22;58876;51.994;4.472;2022-07-29T13:30:02;29.45;36.00
71175;DHT22;58876;51.994;4.472;2022-07-29T13:32:29;29.57;36.05
71175;DHT22;58876;51.994;4.472;2022-07-29T13:35:06;29.16;34.98
71175;DHT22;58876;51.994;4.472;2022-07-29T13:37:34;28.81;38.82
71175;DHT22;58876;51.994;4.472;2022-07-29T13:40:01;28.95;36.95
71175;DHT22;58876;51.994;4.472;2022-07-29T13:42:28;29.22;35.23
71175;DHT22;58876;51.994;4.472;2022-07-29T13:44:54;29.15;35.54
71175;DHT22;58876;51.994;4.472;2022-07-29T13:47:20;29.16;36.39
71175;DHT22;58876;51.994;4.472;2022-07-29T13:49:46;28.96;37.42
71175;DHT22;58876;51.994;4.472;2022-07-29T13:52:11;29.23;36.47
71175;DHT22;58876;51.994;4.472;2022-07-29T13:54:37;29.01;35.07
71175;DHT22;58876;51.994;4.472;2022-07-29T13:57:04;28.74;35.30
71175;DHT22;58876;51.994;4.472;2022-07-29T13:59:30;28.44;36.81
71175;DHT22;58876;51.994;4.472;2022-07-29T14:01:56;28.21;36.81
71175;DHT22;58876;51.994;4.472;2022-07-29T14:04:22;28.04;36.42
71175;DHT22;58876;51.994;4.472;2022-07-29T14:06:51;27.97;35.92
71175;DHT22;58876;51.994;4.472;2022-07-29T14:09:17;28.24;35.92
71175;DHT22;58876;51.994;4.472;2022-07-29T14:11:43;28.18;36.99
71175;DHT22;58876;51.994;4.472;2022-07-29T14:14:17;27.83;37.57
71175;DHT22;58876;51.994;4.472;2022-07-29T14:16:42;27.92;37.84
71175;DHT22;58876;51.994;4.472;2022-07-29T14:19:08;28.00;37.29
71175;DHT22;58876;51.994;4.472;2022-07-29T14:21:33;28.37;36.61
71175;DHT22;58876;51.994;4.472;2022-07-29T14:24:00;28.16;37.06
71175;DHT22;58876;51.994;4.472;2022-07-29T14:26:26;27.96;37.76
71175;DHT22;58876;51.994;4.472;2022-07-29T14:28:51;28.20;37.32
71175;DHT22;58876;51.994;4.472;2022-07-29T14:31:17;28.24;37.00
71175;DHT22;58876;51.994;4.472;2022-07-29T14:33:43;28.10;36.01
71175;DHT22;58876;51.994;4.472;2022-07-29T14:36:09;27.94;36.95
71175;DHT22;58876;51.994;4.472;2022-07-29T14:38:35;28.33;37.13
71175;DHT22;58876;51.994;4.472;2022-07-29T14:41:05;28.60;36.55
71175;DHT22;58876;51.994;4.472;2022-07-29T14:43:31;28.07;37.72
71175;DHT22;58876;51.994;4.472;2022-07-29T14:45:57;27.96;38.16
71175;DHT22;58876;51.994;4.472;2022-07-29T14:48:22;27.54;38.59
71175;DHT22;58876;51.994;4.472;2022-07-29T14:50:55;27.37;39.48
71175;DHT22;58876;51.994;4.472;2022-07-29T14:53:22;27.88;38.12
71175;DHT22;58876;51.994;4.472;2022-07-29T14:55:48;27.66;39.59
71175;DHT22;58876;51.994;4.472;2022-07-29T14:58:14;27.48;39.23
71175;DHT22;58876;51.994;4.472;2022-07-29T15:00:40;27.48;40.21
71175;DHT22;58876;51.994;4.472;2022-07-29T15:03:05;27.10;39.17
71175;DHT22;58876;51.994;4.472;2022-07-29T15:05:33;27.42;40.10
71175;DHT22;58876;51.994;4.472;2022-07-29T15:07:59;27.58;38.52
71175;DHT22;58876;51.994;4.472;2022-07-29T15:10:25;27.23;38.33
71175;DHT22;58876;51.994;4.472;2022-07-29T15:12:52;27.24;39.47
71175;DHT22;58876;51.994;4.472;2022-07-29T15:15:20;27.30;39.12
71175;DHT22;58876;51.994;4.472;2022-07-29T15:17:46;27.03;39.58
71175;DHT22;58876;51.994;4.472;2022-07-29T15:20:12;27.38;40.25
71175;DHT22;58876;51.994;4.472;2022-07-29T15:22:37;27.62;39.49
71175;DHT22;58876;51.994;4.472;2022-07-29T15:25:05;27.73;38.56
71175;DHT22;58876;51.994;4.472;2022-07-29T15:27:30;27.73;39.08
71175;DHT22;58876;51.994;4.472;2022-07-29T15:29:56;27.70;38.93
71175;DHT22;58876;51.994;4.472;2022-07-29T15:32:22;27.41;39.48
71175;DHT22;58876;51.994;4.472;2022-07-29T15:34:48;27.51;39.89
71175;DHT22;58876;51.994;4.472;2022-07-29T15:37:13;27.73;38.83
71175;DHT22;58876;51.994;4.472;2022-07-29T15:39:39;27.42;38.55
71175;DHT22;58876;51.994;4.472;2022-07-29T15:42:04;27.41;39.51
71175;DHT22;58876;51.994;4.472;2022-07-29T15:44:30;27.49;38.39
71175;DHT22;58876;51.994;4.472;2022-07-29T15:46:56;27.81;38.28
71175;DHT22;58876;51.994;4.472;2022-07-29T15:49:40;27.35;38.86
71175;DHT22;58876;51.994;4.472;2022-07-29T15:52:08;26.83;40.33
71175;DHT22;58876;51.994;4.472;2022-07-29T15:54:36;27.16;40.65
71175;DHT22;58876;51.994;4.472;2022-07-29T15:57:04;27.25;39.59
71175;DHT22;58876;51.994;4.472;2022-07-29T15:59:30;27.34;40.34
71175;DHT22;58876;51.994;4.472;2022-07-29T16:02:01;27.32;40.15
71175;DHT22;58876;51.994;4.472;2022-07-29T16:04:27;27.49;39.94
71175;DHT22;58876;51.994;4.472;2022-07-29T16:06:53;27.66;38.63
71175;DHT22;58876;51.994;4.472;2022-07-29T16:09:19;27.03;40.28
71175;DHT22;58876;51.994;4.472;2022-07-29T16:11:45;26.90;39.92
71175;DHT22;58876;51.994;4.472;2022-07-29T16:14:13;26.69;40.86
71175;DHT22;58876;51.994;4.472;2022-07-29T16:16:38;26.74;41.44
71175;DHT22;58876;51.994;4.472;2022-07-29T16:19:04;26.55;39.55
71175;DHT22;58876;51.994;4.472;2022-07-29T16:21:30;27.25;40.07
71175;DHT22;58876;51.994;4.472;2022-07-29T16:23:57;27.55;39.43
71175;DHT22;58876;51.994;4.472;2022-07-29T16:26:23;27.55;39.04
71175;DHT22;58876;51.994;4.472;2022-07-29T16:28:49;27.38;39.41
71175;DHT22;58876;51.994;4.472;2022-07-29T16:31:14;27.31;39.99
71175;DHT22;58876;51.994;4.472;2022-07-29T16:33:44;27.08;39.23
71175;DHT22;58876;51.994;4.472;2022-07-29T16:36:09;26.97;40.55
71175;DHT22;58876;51.994;4.472;2022-07-29T16:38:35;27.05;40.96
71175;DHT22;58876;51.994;4.472;2022-07-29T16:41:02;27.20;40.55
71175;DHT22;58876;51.994;4.472;2022-07-29T16:43:27;27.73;38.81
71175;DHT22;58876;51.994;4.472;2022-07-29T16:45:53;27.94;40.87
71175;DHT22;58876;51.994;4.472;2022-07-29T16:48:18;28.06;40.77
71175;DHT22;58876;51.994;4.472;2022-07-29T16:50:44;28.03;41.31
71175;DHT22;58876;51.994;4.472;2022-07-29T16:53:10;27.55;42.77
71175;DHT22;58876;51.994;4.472;2022-07-29T16:55:38;27.45;41.05
71175;DHT22;58876;51.994;4.472;2022-07-29T16:58:04;27.42;42.70
71175;DHT22;58876;51.994;4.472;2022-07-29T17:00:29;27.51;43.30
71175;DHT22;58876;51.994;4.472;2022-07-29T17:02:55;27.49;41.76
71175;DHT22;58876;51.994;4.472;2022-07-29T17:05:34;27.45;43.35
71175;DHT22;58876;51.994;4.472;2022-07-29T17:08:03;27.58;43.07